Time;durP1;ratioP1;P1;durP2;ratioP2;P2;SDS_P1;SDS_P2;PMS_P1;PMS_P2;Temp;Humidity;BMP_temperature;BMP_pressure;BME280_temperature;BME280_humidity;BME280_pressure;Samples;Min_cycle;Max_cycle;Signal;HPM_P1;HPM_P2
2021/12/05 00:18:36;;;;;;;16.33;12.40;;;;;;;;;;5016370;28;20219;-72
2021/12/05 00:23:25;;;;;;;15.87;12.53;;;;;;;;;;5001566;28;20599;-73
2021/12/05 00:25:55;;;;;;;15.13;11.60;;;;;;;;;;4994511;28;20224;-72
2021/12/05 00:37:44;;;;;;;18.03;13.57;;;;;;;;;;5018207;28;20223;-72
2021/12/05 00:42:03;;;;;;;16.30;12.33;;;;;;;;;;5009418;28;20216;-73
2021/12/05 00:45:42;;;;;;;18.97;13.63;;;;;;;;;;5032395;28;20227;-72
2021/12/05 01:11:13;;;;;;;25.07;15.40;;;;;;;;;;4994330;28;20223;-73
2021/12/05 01:13:55;;;;;;;19.67;14.63;;;;;;;;;;5023179;28;20246;-72
2021/12/05 01:16:25;;;;;;;23.47;15.77;;;;;;;;;;5018520;28;20290;-72
2021/12/05 01:18:56;;;;;;;22.10;15.33;;;;;;;;;;5020436;28;20263;-73
2021/12/05 01:21:27;;;;;;;21.83;15.10;;;;;;;;;;5008941;28;20254;-72
2021/12/05 01:24:18;;;;;;;26.07;16.07;;;;;;;;;;5009342;28;20223;-72
2021/12/05 01:29:28;;;;;;;25.20;16.50;;;;;;;;;;5002274;28;20230;-72
2021/12/05 01:37:51;;;;;;;22.90;16.50;;;;;;;;;;5048578;28;20235;-72
2021/12/05 01:59:12;;;;;;;26.77;17.67;;;;;;;;;;5019337;28;20593;-73
2021/12/05 02:35:12;;;;;;;26.00;17.33;;;;;;;;;;5010932;28;20232;-73
2021/12/05 02:40:35;;;;;;;32.17;18.20;;;;;;;;;;5031660;28;20707;-73
2021/12/05 02:43:10;;;;;;;33.07;18.37;;;;;;;;;;5036498;28;20238;-73
2021/12/05 02:45:40;;;;;;;32.37;18.20;;;;;;;;;;5020742;28;20258;-74
2021/12/05 02:48:12;;;;;;;33.90;18.67;;;;;;;;;;4995256;28;20233;-73
2021/12/05 02:50:38;;;;;;;27.90;17.70;;;;;;;;;;5016544;28;20338;-72
2021/12/05 02:53:18;;;;;;;29.60;18.23;;;;;;;;;;5001702;28;20223;-73
2021/12/05 02:55:47;;;;;;;27.70;17.73;;;;;;;;;;5039806;28;20432;-73
2021/12/05 02:58:29;;;;;;;32.20;18.97;;;;;;;;;;4982794;28;20228;-73
2021/12/05 03:03:30;;;;;;;28.17;16.77;;;;;;;;;;5019228;28;20289;-73
2021/12/05 03:06:03;;;;;;;27.90;16.40;;;;;;;;;;5038337;28;20243;-73
2021/12/05 03:08:29;;;;;;;29.30;17.43;;;;;;;;;;5033723;28;20251;-73
2021/12/05 03:10:55;;;;;;;27.77;17.57;;;;;;;;;;5049556;28;20250;-71
2021/12/05 03:13:21;;;;;;;26.33;17.00;;;;;;;;;;5049194;28;20273;-74
2021/12/05 03:15:48;;;;;;;27.50;18.10;;;;;;;;;;5035546;28;20287;-71
2021/12/05 03:18:13;;;;;;;27.73;16.67;;;;;;;;;;4979849;28;20574;-73
2021/12/05 03:20:41;;;;;;;28.17;16.73;;;;;;;;;;4983856;28;20220;-73
2021/12/05 03:23:09;;;;;;;28.03;16.73;;;;;;;;;;5028181;28;20795;-71
2021/12/05 03:25:35;;;;;;;25.67;16.23;;;;;;;;;;4997469;28;20552;-71
2021/12/05 03:28:06;;;;;;;24.33;16.03;;;;;;;;;;5011249;28;20624;-71
2021/12/05 03:30:37;;;;;;;29.57;17.37;;;;;;;;;;4996307;28;20243;-73
2021/12/05 03:33:05;;;;;;;25.43;16.03;;;;;;;;;;4994646;28;20225;-73
2021/12/05 03:35:31;;;;;;;25.50;16.50;;;;;;;;;;5034333;28;20269;-73
2021/12/05 03:38:02;;;;;;;23.43;15.87;;;;;;;;;;5034506;28;20724;-73
2021/12/05 03:40:31;;;;;;;27.97;16.13;;;;;;;;;;5031150;28;20234;-73
2021/12/05 03:43:01;;;;;;;22.10;14.80;;;;;;;;;;5008865;28;20244;-73
2021/12/05 03:45:33;;;;;;;21.50;14.93;;;;;;;;;;4997697;28;20236;-73
2021/12/05 03:48:01;;;;;;;21.90;14.63;;;;;;;;;;5018429;28;20273;-73
2021/12/05 03:50:32;;;;;;;25.23;15.63;;;;;;;;;;5032101;28;20215;-73
2021/12/05 03:53:04;;;;;;;25.00;15.50;;;;;;;;;;5014850;28;20216;-73
2021/12/05 03:55:33;;;;;;;22.20;14.47;;;;;;;;;;5014072;28;20271;-72
2021/12/05 03:58:02;;;;;;;22.93;14.63;;;;;;;;;;5033671;28;20230;-72
2021/12/05 04:00:38;;;;;;;21.07;14.33;;;;;;;;;;5016880;28;20223;-73
2021/12/05 04:03:06;;;;;;;21.10;13.47;;;;;;;;;;4994851;28;20652;-72
2021/12/05 04:05:35;;;;;;;21.27;13.53;;;;;;;;;;4977394;28;20221;-72
2021/12/05 04:08:07;;;;;;;18.20;13.13;;;;;;;;;;4993831;28;20278;-74
2021/12/05 04:10:34;;;;;;;21.20;13.53;;;;;;;;;;4993695;28;20232;-72
2021/12/05 04:13:02;;;;;;;22.03;13.43;;;;;;;;;;5032631;28;20211;-73
2021/12/05 04:15:33;;;;;;;19.80;13.40;;;;;;;;;;5033385;28;20270;-73
2021/12/05 04:18:01;;;;;;;18.57;12.73;;;;;;;;;;5031192;28;20220;-72
2021/12/05 04:20:29;;;;;;;19.07;12.53;;;;;;;;;;4997601;28;20220;-72
2021/12/05 04:22:57;;;;;;;19.60;12.77;;;;;;;;;;5014446;28;20299;-72
2021/12/05 04:25:23;;;;;;;18.03;12.33;;;;;;;;;;5032724;28;20222;-72
2021/12/05 04:27:53;;;;;;;17.57;12.53;;;;;;;;;;5013594;28;20702;-72
2021/12/05 04:30:20;;;;;;;19.03;12.80;;;;;;;;;;4977528;28;20308;-72
2021/12/05 04:32:47;;;;;;;17.67;12.03;;;;;;;;;;5006624;28;20212;-73
2021/12/05 04:35:15;;;;;;;18.50;12.20;;;;;;;;;;5015630;28;20219;-72
2021/12/05 04:37:41;;;;;;;22.57;12.97;;;;;;;;;;5037869;28;20224;-72
2021/12/05 04:40:08;;;;;;;18.73;13.23;;;;;;;;;;5030246;28;20591;-72
2021/12/05 04:42:34;;;;;;;20.57;13.10;;;;;;;;;;5008460;28;20571;-72
2021/12/05 04:45:07;;;;;;;20.77;12.40;;;;;;;;;;5016487;28;20701;-72
2021/12/05 04:47:36;;;;;;;18.93;12.90;;;;;;;;;;5019255;28;20228;-72
2021/12/05 04:50:07;;;;;;;19.43;12.50;;;;;;;;;;4977116;28;20220;-72
2021/12/05 04:52:37;;;;;;;20.30;12.83;;;;;;;;;;5014322;28;20330;-73
2021/12/05 04:55:04;;;;;;;19.30;13.07;;;;;;;;;;5032092;28;20227;-73
2021/12/05 04:57:30;;;;;;;19.73;13.57;;;;;;;;;;5020739;28;20303;-72
2021/12/05 04:59:56;;;;;;;22.57;13.73;;;;;;;;;;4977074;28;20312;-72
2021/12/05 05:02:23;;;;;;;21.13;14.70;;;;;;;;;;5006496;28;20220;-73
2021/12/05 05:04:51;;;;;;;25.57;13.87;;;;;;;;;;5016109;28;20212;-73
2021/12/05 05:07:23;;;;;;;23.70;14.30;;;;;;;;;;5023193;28;20221;-73
2021/12/05 05:09:51;;;;;;;25.23;14.87;;;;;;;;;;4993554;28;20225;-73
2021/12/05 05:12:20;;;;;;;24.50;14.07;;;;;;;;;;5019554;28;20215;-72
2021/12/05 05:14:54;;;;;;;22.70;14.80;;;;;;;;;;5032584;28;20226;-73
2021/12/05 05:17:25;;;;;;;20.20;13.33;;;;;;;;;;5007921;28;20296;-73
2021/12/05 05:19:57;;;;;;;25.87;15.13;;;;;;;;;;5010614;28;20221;-73
2021/12/05 05:22:51;;;;;;;23.07;14.93;;;;;;;;;;4988075;28;20219;-73
2021/12/05 05:39:01;;;;;;;24.17;14.80;;;;;;;;;;5012102;28;20698;-73
2021/12/05 05:44:45;;;;;;;24.80;14.90;;;;;;;;;;5049782;28;20219;-73
2021/12/05 05:50:00;;;;;;;26.40;14.77;;;;;;;;;;4997695;28;20228;-74
2021/12/05 05:52:29;;;;;;;24.70;13.73;;;;;;;;;;4986437;28;20235;-74
2021/12/05 05:55:00;;;;;;;27.07;14.97;;;;;;;;;;5003831;28;20219;-73
2021/12/05 05:57:39;;;;;;;21.50;14.87;;;;;;;;;;5018627;28;20212;-74
2021/12/05 06:00:18;;;;;;;25.10;14.93;;;;;;;;;;5017234;28;20251;-73
2021/12/05 06:05:36;;;;;;;21.17;13.80;;;;;;;;;;5023657;28;20310;-73
2021/12/05 06:08:01;;;;;;;22.53;13.67;;;;;;;;;;5048432;28;20293;-73
2021/12/05 06:10:28;;;;;;;23.23;13.73;;;;;;;;;;5015498;28;20224;-74
2021/12/05 06:12:56;;;;;;;21.63;13.90;;;;;;;;;;5001291;28;20223;-73
2021/12/05 06:15:26;;;;;;;23.37;14.40;;;;;;;;;;5035963;28;20215;-73
2021/12/05 06:17:53;;;;;;;24.27;14.33;;;;;;;;;;5034233;28;20299;-73
2021/12/05 06:20:23;;;;;;;25.73;14.73;;;;;;;;;;4999230;28;20224;-73
2021/12/05 06:22:51;;;;;;;23.03;14.53;;;;;;;;;;5017376;28;20216;-73
2021/12/05 06:25:23;;;;;;;26.63;15.83;;;;;;;;;;5012363;28;20235;-73
2021/12/05 06:27:57;;;;;;;26.10;15.40;;;;;;;;;;4999147;28;20236;-73
2021/12/05 06:30:34;;;;;;;28.60;16.70;;;;;;;;;;5010815;28;20223;-73
2021/12/05 06:38:53;;;;;;;24.40;13.57;;;;;;;;;;5005321;28;20273;-73
2021/12/05 06:41:37;;;;;;;22.80;14.00;;;;;;;;;;5011477;28;20236;-72
2021/12/05 06:46:49;;;;;;;24.23;13.27;;;;;;;;;;5052858;28;20707;-73
2021/12/05 06:49:16;;;;;;;20.93;13.23;;;;;;;;;;5006675;28;20291;-72
2021/12/05 06:51:44;;;;;;;22.17;14.30;;;;;;;;;;4995087;28;20224;-72
2021/12/05 06:54:10;;;;;;;24.47;14.23;;;;;;;;;;4976764;28;20261;-72
2021/12/05 06:56:40;;;;;;;25.60;14.73;;;;;;;;;;5034543;28;20219;-72
2021/12/05 06:59:13;;;;;;;26.40;14.40;;;;;;;;;;5024887;28;20252;-72
2021/12/05 07:01:40;;;;;;;25.30;14.53;;;;;;;;;;4979920;28;20208;-72
2021/12/05 07:04:24;;;;;;;22.83;14.83;;;;;;;;;;5006037;28;20251;-72
2021/12/05 07:06:54;;;;;;;24.70;14.27;;;;;;;;;;5037565;28;20227;-72
2021/12/05 07:09:26;;;;;;;28.40;15.70;;;;;;;;;;5024762;28;20217;-72
2021/12/05 07:12:27;;;;;;;25.97;14.77;;;;;;;;;;5011907;28;20259;-71
2021/12/05 07:20:12;;;;;;;26.83;15.13;;;;;;;;;;5022034;28;20279;-71
2021/12/05 07:25:26;;;;;;;25.10;15.57;;;;;;;;;;5034222;28;20223;-72
2021/12/05 07:44:11;;;;;;;24.03;14.83;;;;;;;;;;5010771;28;20229;-72
2021/12/05 07:46:39;;;;;;;24.23;14.60;;;;;;;;;;4994139;28;20220;-73
2021/12/05 07:49:10;;;;;;;23.40;14.53;;;;;;;;;;4998748;28;20244;-71
2021/12/05 07:51:39;;;;;;;27.53;14.63;;;;;;;;;;5024127;28;20287;-72
2021/12/05 07:54:15;;;;;;;22.60;14.77;;;;;;;;;;5014387;28;20756;-72
2021/12/05 07:56:58;;;;;;;22.83;15.00;;;;;;;;;;5003519;28;20231;-72
2021/12/05 08:15:59;;;;;;;25.00;14.83;;;;;;;;;;4999366;28;20212;-73
2021/12/05 08:18:27;;;;;;;23.10;15.03;;;;;;;;;;5021973;28;20307;-73
2021/12/05 08:20:53;;;;;;;24.70;15.53;;;;;;;;;;5009242;28;20223;-73
2021/12/05 08:23:18;;;;;;;27.40;17.10;;;;;;;;;;5024724;28;20227;-73
2021/12/05 08:25:51;;;;;;;31.33;18.40;;;;;;;;;;5033242;28;20219;-72
2021/12/05 08:30:45;;;;;;;29.37;17.77;;;;;;;;;;5024899;28;20722;-73
2021/12/05 08:33:29;;;;;;;27.63;16.97;;;;;;;;;;4994240;28;20220;-71
2021/12/05 09:39:42;;;;;;;22.87;15.47;;;;;;;;;;5025463;28;20686;-71
2021/12/05 10:15:26;;;;;;;17.97;12.83;;;;;;;;;;5010298;28;20263;-72
2021/12/05 10:18:46;;;;;;;21.87;14.47;;;;;;;;;;5035544;28;20277;-72
2021/12/05 10:37:53;;;;;;;21.73;13.00;;;;;;;;;;5047286;28;20223;-70
2021/12/05 10:40:33;;;;;;;19.93;12.20;;;;;;;;;;5033439;28;20281;-71
2021/12/05 10:43:11;;;;;;;17.13;12.57;;;;;;;;;;4994330;28;20224;-71
2021/12/05 10:45:41;;;;;;;18.53;12.40;;;;;;;;;;5030258;28;20234;-71
2021/12/05 10:48:10;;;;;;;15.80;12.53;;;;;;;;;;5040036;28;20778;-69
2021/12/05 10:50:50;;;;;;;19.67;12.73;;;;;;;;;;5052146;28;20234;-70
2021/12/05 10:53:19;;;;;;;18.40;12.13;;;;;;;;;;5051398;28;20231;-70
2021/12/05 10:55:45;;;;;;;18.80;12.90;;;;;;;;;;5051643;28;20226;-70
2021/12/05 10:58:13;;;;;;;14.90;12.20;;;;;;;;;;5010487;28;20216;-71
2021/12/05 11:00:38;;;;;;;16.23;11.53;;;;;;;;;;5037182;28;20266;-71
2021/12/05 11:03:19;;;;;;;16.17;11.57;;;;;;;;;;5027775;28;20711;-72
2021/12/05 11:05:49;;;;;;;15.93;12.43;;;;;;;;;;4993292;28;20216;-72
2021/12/05 11:08:37;;;;;;;19.07;14.13;;;;;;;;;;5020706;28;21003;-72
2021/12/05 11:11:13;;;;;;;24.60;16.03;;;;;;;;;;5034912;28;20237;-71
2021/12/05 11:13:44;;;;;;;17.57;14.00;;;;;;;;;;4980427;28;20319;-73
2021/12/05 11:16:35;;;;;;;18.30;12.97;;;;;;;;;;5013559;28;20278;-70
2021/12/05 11:19:24;;;;;;;24.00;14.47;;;;;;;;;;5051066;28;20281;-72
2021/12/05 11:22:29;;;;;;;20.17;12.90;;;;;;;;;;5023708;28;20224;-72
2021/12/05 11:25:06;;;;;;;16.03;13.33;;;;;;;;;;5009505;28;20230;-72
2021/12/05 11:27:40;;;;;;;19.13;13.77;;;;;;;;;;5031698;28;20224;-71
2021/12/05 11:30:26;;;;;;;19.87;13.90;;;;;;;;;;5030508;28;20732;-71
2021/12/05 11:32:54;;;;;;;20.97;13.90;;;;;;;;;;5032087;28;20230;-71
2021/12/05 11:35:25;;;;;;;20.60;13.17;;;;;;;;;;5040109;28;20212;-71
2021/12/05 11:37:55;;;;;;;21.43;13.50;;;;;;;;;;5013675;28;20243;-71
2021/12/05 11:40:24;;;;;;;18.27;13.10;;;;;;;;;;5010621;28;20316;-71
2021/12/05 11:43:00;;;;;;;20.77;14.23;;;;;;;;;;5007722;28;20223;-74
2021/12/05 11:45:29;;;;;;;18.63;13.53;;;;;;;;;;4998630;28;22238;-71
2021/12/05 11:47:55;;;;;;;21.43;14.17;;;;;;;;;;5022783;28;20228;-72
2021/12/05 11:50:33;;;;;;;18.67;12.43;;;;;;;;;;5021279;28;20298;-72
2021/12/05 11:53:03;;;;;;;17.67;12.60;;;;;;;;;;5009548;28;20215;-72
2021/12/05 11:55:30;;;;;;;17.50;13.03;;;;;;;;;;5007611;28;20299;-71
2021/12/05 11:58:01;;;;;;;18.00;12.27;;;;;;;;;;5013907;28;20231;-71
2021/12/05 12:00:30;;;;;;;19.50;13.33;;;;;;;;;;5021794;28;20216;-74
2021/12/05 12:03:00;;;;;;;20.60;12.83;;;;;;;;;;5006621;28;20223;-73
2021/12/05 12:05:28;;;;;;;21.23;14.23;;;;;;;;;;5039419;28;20421;-71
2021/12/05 12:08:02;;;;;;;19.67;14.23;;;;;;;;;;5038394;28;20228;-71
2021/12/05 12:10:39;;;;;;;18.70;13.53;;;;;;;;;;5025657;28;20799;-71
2021/12/05 12:13:12;;;;;;;21.27;13.10;;;;;;;;;;5024108;28;20239;-71
2021/12/05 12:15:38;;;;;;;20.83;15.27;;;;;;;;;;4994692;28;20223;-71
2021/12/05 12:18:17;;;;;;;18.50;13.43;;;;;;;;;;5035821;28;20231;-72
2021/12/05 12:20:46;;;;;;;20.17;14.87;;;;;;;;;;5022247;28;20319;-71
2021/12/05 12:23:12;;;;;;;21.70;14.53;;;;;;;;;;5019915;28;20240;-73
2021/12/05 12:25:39;;;;;;;20.83;13.80;;;;;;;;;;5040056;28;20701;-72
2021/12/05 12:28:08;;;;;;;20.60;13.47;;;;;;;;;;5029928;28;20228;-73
2021/12/05 12:30:38;;;;;;;19.37;14.13;;;;;;;;;;5018707;28;20223;-73
2021/12/05 12:33:14;;;;;;;24.50;17.03;;;;;;;;;;5010365;28;20217;-72
2021/12/05 12:35:42;;;;;;;24.43;17.43;;;;;;;;;;5003499;28;20857;-72
2021/12/05 12:38:14;;;;;;;24.97;18.57;;;;;;;;;;4995614;28;20216;-72
2021/12/05 12:40:44;;;;;;;20.30;14.27;;;;;;;;;;5044792;28;20223;-71
2021/12/05 12:43:39;;;;;;;20.27;14.90;;;;;;;;;;5051075;28;20289;-71
2021/12/05 12:46:20;;;;;;;18.80;13.40;;;;;;;;;;5034920;28;20643;-72
2021/12/05 12:48:49;;;;;;;18.23;13.50;;;;;;;;;;5029439;28;20235;-74
2021/12/05 12:51:46;;;;;;;19.57;14.13;;;;;;;;;;5049041;28;20255;-71
2021/12/05 12:54:26;;;;;;;18.80;13.30;;;;;;;;;;5050085;28;20232;-71
2021/12/05 12:57:14;;;;;;;20.00;13.60;;;;;;;;;;5010417;28;20220;-72
2021/12/05 13:00:08;;;;;;;23.73;15.90;;;;;;;;;;5015807;28;20609;-71
2021/12/05 13:03:01;;;;;;;21.23;14.33;;;;;;;;;;5033563;28;20231;-71
2021/12/05 13:11:18;;;;;;;24.20;16.30;;;;;;;;;;5037080;28;20227;-72
2021/12/05 13:13:57;;;;;;;25.87;15.77;;;;;;;;;;5015632;28;20216;-71
2021/12/05 13:16:28;;;;;;;25.27;15.90;;;;;;;;;;5009426;28;20327;-71
2021/12/05 13:19:08;;;;;;;22.37;14.97;;;;;;;;;;5021442;28;20223;-71
2021/12/05 13:21:40;;;;;;;25.70;15.23;;;;;;;;;;5025403;28;20603;-72
2021/12/05 13:24:31;;;;;;;22.90;15.30;;;;;;;;;;5032787;28;20234;-72
2021/12/05 13:27:06;;;;;;;24.17;15.37;;;;;;;;;;5049232;28;20808;-70
2021/12/05 13:29:56;;;;;;;25.33;15.33;;;;;;;;;;5035277;28;20235;-73
2021/12/05 13:32:29;;;;;;;22.47;15.57;;;;;;;;;;5021716;28;20227;-72
2021/12/05 13:35:11;;;;;;;25.20;16.13;;;;;;;;;;5013122;28;20223;-72
2021/12/05 13:37:38;;;;;;;24.13;15.73;;;;;;;;;;4978628;28;20224;-72
2021/12/05 13:40:17;;;;;;;20.60;14.77;;;;;;;;;;5010060;28;20719;-72
2021/12/05 13:42:52;;;;;;;30.57;21.13;;;;;;;;;;5049403;28;20227;-72
2021/12/05 13:45:17;;;;;;;27.13;19.47;;;;;;;;;;5017673;28;20295;-73
2021/12/05 13:47:56;;;;;;;25.50;18.80;;;;;;;;;;5029392;28;20324;-70
2021/12/05 13:50:25;;;;;;;23.20;17.30;;;;;;;;;;5038361;28;20692;-71
2021/12/05 13:53:03;;;;;;;27.57;18.07;;;;;;;;;;5016388;28;20298;-72
2021/12/05 13:55:42;;;;;;;25.93;15.10;;;;;;;;;;5045726;28;20218;-71
2021/12/05 13:58:25;;;;;;;22.60;14.60;;;;;;;;;;5028707;28;20226;-72
2021/12/05 14:01:01;;;;;;;25.57;16.90;;;;;;;;;;5034954;28;20223;-72
2021/12/05 14:03:46;;;;;;;22.03;15.20;;;;;;;;;;5053283;28;20707;-71
2021/12/05 14:06:31;;;;;;;23.93;15.23;;;;;;;;;;5045916;28;20214;-70
2021/12/05 14:09:22;;;;;;;24.90;14.07;;;;;;;;;;5028063;28;20235;-72
2021/12/05 14:12:00;;;;;;;27.30;16.77;;;;;;;;;;5017228;28;20223;-72
2021/12/05 14:14:34;;;;;;;33.17;23.70;;;;;;;;;;5029450;28;20228;-72
2021/12/05 14:17:07;;;;;;;32.23;19.77;;;;;;;;;;5017293;28;20230;-72
2021/12/05 14:19:34;;;;;;;25.53;17.97;;;;;;;;;;5021276;28;20232;-72
2021/12/05 14:22:04;;;;;;;23.33;16.57;;;;;;;;;;5005132;28;20712;-73
2021/12/05 14:24:34;;;;;;;24.10;15.10;;;;;;;;;;5028401;28;20216;-71
2021/12/05 14:27:05;;;;;;;28.77;15.60;;;;;;;;;;5008645;28;20224;-72
2021/12/05 14:29:39;;;;;;;25.27;14.33;;;;;;;;;;5011388;28;20636;-72
2021/12/05 14:32:09;;;;;;;23.87;13.67;;;;;;;;;;4983370;28;20227;-72
2021/12/05 14:34:35;;;;;;;22.83;14.63;;;;;;;;;;5009617;28;20270;-73
2021/12/05 14:37:06;;;;;;;24.93;13.90;;;;;;;;;;5023883;28;20248;-71
2021/12/05 14:39:34;;;;;;;19.83;13.13;;;;;;;;;;5025830;28;20221;-72
2021/12/05 14:42:02;;;;;;;22.87;12.87;;;;;;;;;;5028802;28;20702;-72
2021/12/05 14:44:30;;;;;;;20.67;13.73;;;;;;;;;;5002823;28;20709;-72
2021/12/05 14:47:16;;;;;;;17.80;12.33;;;;;;;;;;5028139;28;20251;-72
2021/12/05 14:49:50;;;;;;;18.63;11.80;;;;;;;;;;5025701;28;20307;-71
2021/12/05 14:52:21;;;;;;;19.80;12.80;;;;;;;;;;5031651;28;20219;-73
2021/12/05 14:54:47;;;;;;;22.87;13.67;;;;;;;;;;5035599;28;20211;-72
2021/12/05 14:57:22;;;;;;;20.70;13.47;;;;;;;;;;5023962;28;20327;-71
2021/12/05 15:00:01;;;;;;;20.60;12.37;;;;;;;;;;4980599;28;20644;-72
2021/12/05 15:02:31;;;;;;;19.80;12.03;;;;;;;;;;4978997;28;20230;-73
2021/12/05 15:04:57;;;;;;;18.33;11.77;;;;;;;;;;5040602;28;20228;-72
2021/12/05 15:07:23;;;;;;;17.50;11.20;;;;;;;;;;5011785;28;20240;-72
2021/12/05 15:09:51;;;;;;;17.40;10.80;;;;;;;;;;5021748;28;20308;-72
2021/12/05 15:12:20;;;;;;;18.93;12.10;;;;;;;;;;5018963;28;20228;-71
2021/12/05 15:14:52;;;;;;;18.17;11.03;;;;;;;;;;5004385;28;20212;-73
2021/12/05 15:17:19;;;;;;;20.17;11.43;;;;;;;;;;5034233;28;20290;-73
2021/12/05 15:19:51;;;;;;;18.17;11.37;;;;;;;;;;5033199;28;20229;-74
2021/12/05 15:22:19;;;;;;;18.77;11.47;;;;;;;;;;4994530;28;20215;-72
2021/12/05 15:24:56;;;;;;;21.20;13.30;;;;;;;;;;5019787;28;20970;-72
2021/12/05 15:27:23;;;;;;;24.03;12.87;;;;;;;;;;5025520;28;23029;-72
2021/12/05 15:30:11;;;;;;;25.83;13.70;;;;;;;;;;5024405;28;20236;-72
2021/12/05 15:32:36;;;;;;;20.83;11.50;;;;;;;;;;5015301;28;20700;-72
2021/12/05 15:35:08;;;;;;;19.30;11.07;;;;;;;;;;5017687;28;20692;-72
2021/12/05 15:37:34;;;;;;;18.63;11.93;;;;;;;;;;5029017;28;20212;-73
2021/12/05 15:40:03;;;;;;;15.93;11.37;;;;;;;;;;5021826;28;20605;-73
2021/12/05 15:42:37;;;;;;;19.87;11.47;;;;;;;;;;5052135;28;20227;-72
2021/12/05 15:45:09;;;;;;;16.43;10.90;;;;;;;;;;5050389;28;20731;-73
2021/12/05 15:47:40;;;;;;;16.27;11.00;;;;;;;;;;5027114;28;20244;-72
2021/12/05 15:50:06;;;;;;;15.47;9.77;;;;;;;;;;4995306;28;20229;-73
2021/12/05 15:52:57;;;;;;;16.00;11.17;;;;;;;;;;5016872;28;20652;-71
2021/12/05 15:55:25;;;;;;;15.77;9.43;;;;;;;;;;5002212;28;20276;-74
2021/12/05 15:58:19;;;;;;;17.40;10.73;;;;;;;;;;5026255;28;20209;-72
2021/12/05 16:00:47;;;;;;;15.73;9.50;;;;;;;;;;5011837;28;20263;-72
2021/12/05 16:03:23;;;;;;;18.70;9.63;;;;;;;;;;5025431;28;20216;-72
2021/12/05 16:05:54;;;;;;;14.00;8.60;;;;;;;;;;5042626;28;20698;-71
2021/12/05 16:08:21;;;;;;;11.07;8.63;;;;;;;;;;5016205;28;20311;-71
2021/12/05 16:10:49;;;;;;;13.07;8.73;;;;;;;;;;5019376;28;20219;-71
2021/12/05 16:13:20;;;;;;;9.67;6.87;;;;;;;;;;5046118;28;20215;-71
2021/12/05 16:15:50;;;;;;;8.60;6.57;;;;;;;;;;5049190;28;20235;-71
2021/12/05 16:18:22;;;;;;;8.80;7.07;;;;;;;;;;5035258;28;20216;-71
2021/12/05 16:20:55;;;;;;;8.37;7.07;;;;;;;;;;5013372;28;20298;-70
2021/12/05 16:23:24;;;;;;;7.73;6.90;;;;;;;;;;5007997;28;20224;-72
2021/12/05 16:26:09;;;;;;;7.13;6.43;;;;;;;;;;5038745;28;20295;-71
2021/12/05 16:28:41;;;;;;;7.43;6.47;;;;;;;;;;5040517;28;20227;-74
2021/12/05 16:31:30;;;;;;;8.67;7.07;;;;;;;;;;5018589;28;20705;-71
2021/12/05 16:34:07;;;;;;;7.50;6.63;;;;;;;;;;5042025;28;20228;-71
2021/12/05 16:36:43;;;;;;;8.70;6.97;;;;;;;;;;5031566;28;20235;-72
2021/12/05 16:39:19;;;;;;;8.10;7.10;;;;;;;;;;5024658;28;20222;-71
2021/12/05 16:41:47;;;;;;;9.30;7.80;;;;;;;;;;5008339;28;20207;-70
2021/12/05 16:44:19;;;;;;;11.27;8.37;;;;;;;;;;5008112;28;20215;-72
2021/12/05 16:46:48;;;;;;;9.20;7.90;;;;;;;;;;4999927;28;20266;-72
2021/12/05 16:49:19;;;;;;;9.17;8.00;;;;;;;;;;5043347;28;20223;-71
2021/12/05 16:51:54;;;;;;;9.63;8.43;;;;;;;;;;5012557;28;20718;-71
2021/12/05 16:54:25;;;;;;;13.13;9.47;;;;;;;;;;4992525;28;20231;-71
2021/12/05 16:56:58;;;;;;;11.43;8.70;;;;;;;;;;5024645;28;20217;-72
2021/12/05 16:59:32;;;;;;;10.87;8.80;;;;;;;;;;5035447;28;20237;-72
2021/12/05 17:02:28;;;;;;;13.83;9.70;;;;;;;;;;5021824;28;20705;-72
2021/12/05 17:05:00;;;;;;;12.40;10.10;;;;;;;;;;5007449;28;20219;-72
2021/12/05 17:07:40;;;;;;;21.43;13.13;;;;;;;;;;5050676;28;20223;-72
2021/12/05 17:10:32;;;;;;;17.50;12.30;;;;;;;;;;5050846;28;20323;-71
2021/12/05 17:13:05;;;;;;;16.53;11.13;;;;;;;;;;5036878;28;20234;-72
2021/12/05 17:15:42;;;;;;;16.90;12.43;;;;;;;;;;5064089;28;20223;-72
2021/12/05 17:18:17;;;;;;;14.40;10.73;;;;;;;;;;5045963;28;20238;-72
2021/12/05 17:20:48;;;;;;;16.27;11.27;;;;;;;;;;5025547;28;20227;-71
2021/12/05 17:23:26;;;;;;;17.20;11.17;;;;;;;;;;5048131;28;20216;-72
2021/12/05 17:25:54;;;;;;;17.77;12.47;;;;;;;;;;5020793;28;20224;-72
2021/12/05 17:28:30;;;;;;;16.53;12.00;;;;;;;;;;5001884;28;20306;-71
2021/12/05 17:31:02;;;;;;;18.30;12.97;;;;;;;;;;5045822;28;20226;-73
2021/12/05 17:33:38;;;;;;;17.53;12.60;;;;;;;;;;5017998;28;20219;-72
2021/12/05 17:36:24;;;;;;;15.33;12.47;;;;;;;;;;5053965;28;20227;-72
2021/12/05 17:38:57;;;;;;;18.00;12.83;;;;;;;;;;5054541;28;20273;-72
2021/12/05 17:41:27;;;;;;;18.53;13.73;;;;;;;;;;5021269;28;20233;-72
2021/12/05 17:43:52;;;;;;;16.97;12.93;;;;;;;;;;5023087;28;20223;-72
2021/12/05 17:46:18;;;;;;;16.83;12.80;;;;;;;;;;5020744;28;20227;-72
2021/12/05 17:48:46;;;;;;;18.40;11.97;;;;;;;;;;5022174;28;20223;-72
2021/12/05 17:51:14;;;;;;;14.47;11.63;;;;;;;;;;5043703;28;20215;-72
2021/12/05 17:53:40;;;;;;;16.47;13.13;;;;;;;;;;5000421;28;20697;-73
2021/12/05 17:56:54;;;;;;;17.07;12.53;;;;;;;;;;5040363;28;20226;-71
2021/12/05 17:59:04;;;;;;;15.40;12.57;;;;;;;;;;5012354;28;20216;-72
2021/12/05 18:04:20;;;;;;;15.50;11.77;;;;;;;;;;5039169;28;20259;-72
2021/12/05 18:06:48;;;;;;;14.73;11.83;;;;;;;;;;5053869;28;20890;-70
2021/12/05 18:09:18;;;;;;;15.67;12.30;;;;;;;;;;5053338;28;20222;-70
2021/12/05 18:11:49;;;;;;;16.53;12.30;;;;;;;;;;4997741;28;20244;-72
2021/12/05 18:14:15;;;;;;;17.87;13.40;;;;;;;;;;4996874;28;20253;-72
2021/12/05 18:16:45;;;;;;;16.60;13.07;;;;;;;;;;5031366;28;20219;-72
2021/12/05 18:19:15;;;;;;;18.27;13.53;;;;;;;;;;5036396;28;20677;-72
2021/12/05 18:21:41;;;;;;;17.97;13.73;;;;;;;;;;5035441;28;20227;-72
2021/12/05 18:24:14;;;;;;;21.80;15.37;;;;;;;;;;5038067;28;20224;-72
2021/12/05 18:26:42;;;;;;;19.60;14.50;;;;;;;;;;5033100;28;20219;-72
2021/12/05 18:29:09;;;;;;;19.70;14.73;;;;;;;;;;5053098;28;20273;-72
2021/12/05 18:31:35;;;;;;;19.03;13.97;;;;;;;;;;5001591;28;20232;-73
2021/12/05 18:34:24;;;;;;;21.50;15.63;;;;;;;;;;4996628;28;20233;-71
2021/12/05 18:36:51;;;;;;;21.67;15.93;;;;;;;;;;5026438;28;20223;-73
2021/12/05 18:39:26;;;;;;;23.27;16.53;;;;;;;;;;5032473;28;20231;-72
2021/12/05 18:41:56;;;;;;;24.00;17.60;;;;;;;;;;5033446;28;20497;-72
2021/12/05 18:44:26;;;;;;;21.00;15.50;;;;;;;;;;5018692;28;20240;-73
2021/12/05 18:46:54;;;;;;;20.00;15.47;;;;;;;;;;5010121;28;20267;-71
2021/12/05 18:49:19;;;;;;;23.00;17.03;;;;;;;;;;5020558;28;20249;-71
2021/12/05 18:51:48;;;;;;;21.97;16.17;;;;;;;;;;5042753;28;20224;-72
2021/12/05 18:54:16;;;;;;;24.90;17.50;;;;;;;;;;5049811;28;20707;-72
2021/12/05 18:56:42;;;;;;;27.10;18.43;;;;;;;;;;5036274;28;20223;-72
2021/12/05 18:59:12;;;;;;;23.60;17.27;;;;;;;;;;5009782;28;20225;-69
2021/12/05 19:07:04;;;;;;;24.20;16.87;;;;;;;;;;5033693;28;20275;-73
2021/12/05 19:12:15;;;;;;;22.67;16.07;;;;;;;;;;5033530;28;20232;-72
2021/12/05 19:14:43;;;;;;;24.33;18.10;;;;;;;;;;5001731;28;20224;-72
2021/12/05 19:17:10;;;;;;;22.50;17.13;;;;;;;;;;5021579;28;20249;-72
2021/12/05 19:19:40;;;;;;;26.10;17.83;;;;;;;;;;5011175;28;20292;-71
2021/12/05 19:22:07;;;;;;;24.40;17.00;;;;;;;;;;5034670;28;20270;-71
2021/12/05 19:24:34;;;;;;;25.80;18.90;;;;;;;;;;5018394;28;20299;-72
2021/12/05 19:27:05;;;;;;;28.53;19.00;;;;;;;;;;5020622;28;20228;-71
2021/12/05 19:29:34;;;;;;;22.83;17.57;;;;;;;;;;4996060;28;20235;-72
2021/12/05 19:32:03;;;;;;;25.07;18.07;;;;;;;;;;5033299;28;20231;-72
2021/12/05 19:34:31;;;;;;;24.37;17.10;;;;;;;;;;5034577;28;20234;-72
2021/12/05 19:36:57;;;;;;;25.03;17.73;;;;;;;;;;5042343;28;20270;-72
2021/12/05 19:39:24;;;;;;;24.90;18.20;;;;;;;;;;4997815;28;20299;-71
2021/12/05 19:41:55;;;;;;;24.77;18.50;;;;;;;;;;5039326;28;20294;-72
2021/12/05 19:44:21;;;;;;;23.00;16.83;;;;;;;;;;5019492;28;20221;-71
2021/12/05 19:46:48;;;;;;;26.67;18.43;;;;;;;;;;5044689;28;20269;-72
2021/12/05 19:49:14;;;;;;;24.90;17.23;;;;;;;;;;5017604;28;20232;-72
2021/12/05 19:51:45;;;;;;;23.70;16.73;;;;;;;;;;5028364;28;20219;-71
2021/12/05 19:54:11;;;;;;;21.90;16.67;;;;;;;;;;5010143;28;20600;-71
2021/12/05 19:56:44;;;;;;;23.70;18.07;;;;;;;;;;5041452;28;20211;-72
2021/12/05 19:59:13;;;;;;;22.73;16.97;;;;;;;;;;5032490;28;20223;-72
2021/12/05 20:01:45;;;;;;;22.20;16.60;;;;;;;;;;5007691;28;20349;-72
2021/12/05 20:04:11;;;;;;;23.23;16.97;;;;;;;;;;5022238;28;20227;-72
2021/12/05 20:06:38;;;;;;;22.43;16.53;;;;;;;;;;5034142;28;20246;-72
2021/12/05 20:09:07;;;;;;;25.13;17.93;;;;;;;;;;5049774;28;20586;-72
2021/12/05 20:11:32;;;;;;;20.47;15.47;;;;;;;;;;5009893;28;20701;-71
2021/12/05 20:14:03;;;;;;;23.53;15.90;;;;;;;;;;5034423;28;20269;-72